createdAt,value
2018-05-23T00:02:19.462Z,9.17
2018-05-23T00:04:47.347Z,8.43
2018-05-23T00:07:15.242Z,7.93
2018-05-23T00:09:43.228Z,10.03
2018-05-23T00:12:10.739Z,9.53
2018-05-23T00:14:38.289Z,8.80
2018-05-23T00:17:05.823Z,9.20
2018-05-23T00:19:33.324Z,8.90
2018-05-23T00:22:00.849Z,8.27
2018-05-23T00:24:28.835Z,8.07
2018-05-23T00:26:56.344Z,7.00
2018-05-23T00:29:23.907Z,8.10
2018-05-23T00:31:51.411Z,8.33
2018-05-23T00:34:19.391Z,7.90
2018-05-23T00:36:47.383Z,7.40
2018-05-23T00:39:15.286Z,6.73
2018-05-23T00:41:43.172Z,6.90
2018-05-23T00:44:11.069Z,7.00
2018-05-23T00:46:38.951Z,6.00
2018-05-23T00:49:06.455Z,7.03
2018-05-23T00:51:33.947Z,6.40
2018-05-23T00:54:01.502Z,6.40
2018-05-23T00:56:29.000Z,7.50
2018-05-23T00:58:56.935Z,6.60
2018-05-23T01:01:24.423Z,7.10
2018-05-23T01:03:51.931Z,5.77
2018-05-23T01:06:19.428Z,6.03
2018-05-23T01:08:46.936Z,6.93
2018-05-23T01:11:14.903Z,6.80
2018-05-23T01:13:42.414Z,6.27
2018-05-23T01:16:10.299Z,6.23
2018-05-23T01:18:38.276Z,6.13
2018-05-23T01:21:05.771Z,8.70
2018-05-23T01:23:33.671Z,6.27
2018-05-23T01:26:01.568Z,6.17
2018-05-23T01:28:29.127Z,6.67
2018-05-23T01:30:56.711Z,6.73
2018-05-23T01:33:24.224Z,6.43
2018-05-23T01:35:51.729Z,7.60
2018-05-23T01:38:19.263Z,5.97
2018-05-23T01:40:46.756Z,6.37
2018-05-23T01:43:14.751Z,5.83
2018-05-23T01:45:42.735Z,6.10
2018-05-23T01:48:10.252Z,6.83
2018-05-23T01:50:37.750Z,5.70
2018-05-23T01:53:05.255Z,6.67
2018-05-23T01:55:32.768Z,7.93
2018-05-23T01:58:00.350Z,6.00
2018-05-23T02:00:27.838Z,6.20
2018-05-23T02:02:55.355Z,7.20
2018-05-23T02:05:22.898Z,6.17
2018-05-23T02:07:50.387Z,7.00
2018-05-23T02:10:17.908Z,6.37
2018-05-23T02:12:45.396Z,7.13
2018-05-23T02:15:12.907Z,6.57
2018-05-23T02:17:40.407Z,6.37
2018-05-23T02:20:07.919Z,6.77
2018-05-23T02:22:35.894Z,6.37
2018-05-23T02:25:03.403Z,8.80
2018-05-23T02:27:31.375Z,6.80
2018-05-23T02:29:58.955Z,8.00
2018-05-23T02:32:26.455Z,5.90
2018-05-23T02:34:54.439Z,6.97
2018-05-23T02:37:21.918Z,6.63
2018-05-23T02:39:49.516Z,6.67
2018-05-23T02:42:17.402Z,6.53
2018-05-23T02:44:44.908Z,6.60
2018-05-23T02:47:12.522Z,6.07
2018-05-23T02:49:40.472Z,7.63
2018-05-23T02:52:07.968Z,8.60
2018-05-23T02:54:35.865Z,9.13
2018-05-23T02:57:03.367Z,11.73
2018-05-23T02:59:30.914Z,6.83
2018-05-23T03:01:58.789Z,6.60
2018-05-23T03:04:26.299Z,6.60
2018-05-23T03:06:54.196Z,7.23
2018-05-23T03:09:22.102Z,6.80
2018-05-23T03:11:49.600Z,5.77
2018-05-23T03:14:17.113Z,6.07
2018-05-23T03:16:44.619Z,6.63
2018-05-23T03:19:12.127Z,6.23
2018-05-23T03:21:40.143Z,6.50
2018-05-23T03:24:08.024Z,6.90
2018-05-23T03:26:35.515Z,6.40
2018-05-23T03:29:03.026Z,6.70
2018-05-23T03:31:30.523Z,8.03
2018-05-23T03:33:58.114Z,8.43
2018-05-23T03:36:25.625Z,6.90
2018-05-23T03:38:53.598Z,7.87
2018-05-23T03:41:21.112Z,6.60
2018-05-23T03:43:48.696Z,6.90
2018-05-23T03:46:16.141Z,7.03
2018-05-23T03:48:43.648Z,6.70
2018-05-23T03:51:11.551Z,6.53
2018-05-23T03:53:39.435Z,6.63
2018-05-23T03:56:07.416Z,7.20
2018-05-23T03:58:34.906Z,8.20
2018-05-23T04:01:14.628Z,7.97
2018-05-23T04:03:54.136Z,7.60
2018-05-23T04:06:28.447Z,8.67
2018-05-23T04:08:55.934Z,8.10
2018-05-23T04:11:23.552Z,7.57
2018-05-23T04:13:51.043Z,7.47
2018-05-23T04:16:19.032Z,10.07
2018-05-23T04:18:46.517Z,9.17
2018-05-23T04:21:14.019Z,8.17
2018-05-23T04:23:41.994Z,8.33
2018-05-23T04:26:09.924Z,8.77
2018-05-23T04:28:37.416Z,7.93
2018-05-23T04:31:04.931Z,7.80
2018-05-23T04:33:32.410Z,8.27
2018-05-23T04:35:59.991Z,8.10
2018-05-23T04:38:27.479Z,8.67
2018-05-23T04:40:54.995Z,8.33
2018-05-23T04:43:22.879Z,8.03
2018-05-23T04:45:50.766Z,8.37
2018-05-23T04:48:18.288Z,9.87
2018-05-23T04:50:45.770Z,8.33
2018-05-23T04:53:13.315Z,8.07
2018-05-23T04:55:40.911Z,7.73
2018-05-23T04:58:08.807Z,7.87
2018-05-23T05:00:36.696Z,9.30
2018-05-23T05:03:04.594Z,9.23
2018-05-23T05:05:32.574Z,8.37
2018-05-23T05:08:00.163Z,8.73
2018-05-23T05:10:27.664Z,8.43
2018-05-23T05:12:55.576Z,7.77
2018-05-23T05:15:23.076Z,7.80
2018-05-23T05:17:50.607Z,8.33
2018-05-23T05:20:18.094Z,9.07
2018-05-23T05:22:45.604Z,8.13
2018-05-23T05:25:13.097Z,8.17
2018-05-23T05:27:40.610Z,8.60
2018-05-23T05:30:08.105Z,7.77
2018-05-23T05:32:35.616Z,8.60
2018-05-23T05:35:03.589Z,7.20
2018-05-23T05:37:31.090Z,8.30
2018-05-23T05:39:59.045Z,8.17
2018-05-23T05:42:26.889Z,8.90
2018-05-23T05:44:54.860Z,8.30
2018-05-23T05:47:22.358Z,8.50
2018-05-23T05:49:50.237Z,9.23
2018-05-23T05:52:17.819Z,7.97
2018-05-23T05:54:46.547Z,8.57
2018-05-23T05:57:14.524Z,8.97
2018-05-23T05:59:42.005Z,8.40
2018-05-23T06:02:09.532Z,7.83
2018-05-23T06:04:37.020Z,8.00
2018-05-23T06:07:04.531Z,7.47
2018-05-23T06:09:32.104Z,9.43
2018-05-23T06:11:59.546Z,8.67
2018-05-23T06:14:27.528Z,10.10
2018-05-23T06:16:55.520Z,8.57
2018-05-23T06:19:23.036Z,11.20
2018-05-23T06:21:50.523Z,8.73
2018-05-23T06:24:18.071Z,8.10
2018-05-23T06:26:45.654Z,8.37
2018-05-23T06:29:13.164Z,8.20
2018-05-23T06:31:40.723Z,8.87
2018-05-23T06:34:08.231Z,8.77
2018-05-23T06:36:35.732Z,10.53
2018-05-23T06:39:03.244Z,9.80
2018-05-23T06:41:30.735Z,9.60
2018-05-23T06:43:58.335Z,9.83
2018-05-23T06:46:25.823Z,10.40
2018-05-23T06:48:53.407Z,9.40
2018-05-23T06:51:20.894Z,9.93
2018-05-23T06:53:48.799Z,9.27
2018-05-23T06:56:16.303Z,7.97
2018-05-23T06:58:43.811Z,5.17
2018-05-23T07:01:11.298Z,6.90
2018-05-23T07:03:38.812Z,8.10
2018-05-23T07:06:06.299Z,7.97
2018-05-23T07:08:33.793Z,6.40
2018-05-23T07:11:01.778Z,7.80
2018-05-23T07:13:29.682Z,7.40
2018-05-23T07:15:57.562Z,7.20
2018-05-23T07:18:25.058Z,7.10
2018-05-23T07:20:52.538Z,7.10
2018-05-23T07:23:20.049Z,7.20
2018-05-23T07:25:47.544Z,6.70
2018-05-23T07:28:15.051Z,7.40
2018-05-23T07:30:42.544Z,6.67
2018-05-23T07:33:10.148Z,8.93
2018-05-23T07:35:37.642Z,6.67
2018-05-23T07:38:05.563Z,7.93
2018-05-23T07:40:33.109Z,8.33
2018-05-23T07:43:00.689Z,6.50
2018-05-23T07:45:28.190Z,7.33
2018-05-23T07:47:56.174Z,7.57
2018-05-23T07:50:23.848Z,6.73
2018-05-23T07:52:51.651Z,6.50
2018-05-23T07:55:19.151Z,7.13
2018-05-23T07:57:47.038Z,7.07
2018-05-23T08:00:15.019Z,7.10
2018-05-23T08:02:42.494Z,6.23
2018-05-23T08:05:09.995Z,6.00
2018-05-23T08:07:37.866Z,6.47
2018-05-23T08:10:05.370Z,6.20
2018-05-23T08:12:32.854Z,7.10
2018-05-23T08:15:00.844Z,5.93
2018-05-23T08:17:28.419Z,5.83
2018-05-23T08:19:55.997Z,5.70
2018-05-23T08:22:23.519Z,6.43
2018-05-23T08:24:51.414Z,6.07
2018-05-23T08:27:19.297Z,6.80
2018-05-23T08:29:47.222Z,9.30
2018-05-23T08:32:14.746Z,7.07
2018-05-23T08:34:42.246Z,5.50
2018-05-23T08:37:10.131Z,5.73
2018-05-23T08:39:37.719Z,9.73
2018-05-23T08:42:05.599Z,7.83
2018-05-23T08:44:33.187Z,5.73
2018-05-23T08:47:00.677Z,5.97
2018-05-23T08:49:28.188Z,8.03
2018-05-23T08:51:55.670Z,6.30
2018-05-23T08:54:23.209Z,6.67
2018-05-23T08:56:50.699Z,5.63
2018-05-23T08:59:18.289Z,7.57
2018-05-23T09:01:45.867Z,6.27
2018-05-23T09:04:13.451Z,6.70
2018-05-23T09:06:40.941Z,8.67
2018-05-23T09:09:08.430Z,6.83
2018-05-23T09:11:36.415Z,6.50
2018-05-23T09:14:03.898Z,6.77
2018-05-23T09:16:31.544Z,7.50
2018-05-23T09:18:59.031Z,6.20
2018-05-23T09:21:26.540Z,6.50
2018-05-23T09:23:54.028Z,6.87
2018-05-23T09:26:21.622Z,5.80
2018-05-23T09:28:49.104Z,6.57
2018-05-23T09:31:16.608Z,6.13
2018-05-23T09:33:44.486Z,6.70
2018-05-23T09:36:11.983Z,5.37
2018-05-23T09:38:39.864Z,7.97
2018-05-23T09:41:07.367Z,7.70
2018-05-23T09:43:35.247Z,4.20
2018-05-23T09:46:03.236Z,8.00
2018-05-23T09:48:30.714Z,6.00
2018-05-23T09:50:58.222Z,6.60
2018-05-23T09:53:25.774Z,5.40
2018-05-23T09:55:53.362Z,5.07
2018-05-23T09:58:20.947Z,5.43
2018-05-23T10:00:48.451Z,5.73
2018-05-23T10:03:16.331Z,7.70
2018-05-23T10:05:43.854Z,6.53
2018-05-23T10:08:11.391Z,8.00
2018-05-23T10:10:38.896Z,6.40
2018-05-23T10:13:06.783Z,5.97
2018-05-23T10:15:34.765Z,7.80
2018-05-23T10:18:02.347Z,5.57
2018-05-23T10:20:29.855Z,6.50
2018-05-23T10:22:57.756Z,7.80
2018-05-23T10:25:25.333Z,8.27
2018-05-23T10:27:53.218Z,6.10
2018-05-23T10:30:21.217Z,8.13
2018-05-23T10:32:49.108Z,6.70
2018-05-23T10:35:17.003Z,6.57
2018-05-23T10:37:44.974Z,6.30
2018-05-23T10:40:12.464Z,6.77
2018-05-23T10:42:39.969Z,6.00
2018-05-23T10:45:07.528Z,6.60
2018-05-23T10:47:35.439Z,8.40
2018-05-23T10:50:03.315Z,8.77
2018-05-23T10:52:30.895Z,10.73
2018-05-23T10:54:58.485Z,10.47
2018-05-23T10:57:25.988Z,8.13
2018-05-23T10:59:53.866Z,7.77
2018-05-23T11:02:21.855Z,7.90
2018-05-23T11:04:49.334Z,7.77
2018-05-23T11:07:16.829Z,11.33
2018-05-23T11:09:44.703Z,8.57
2018-05-23T11:12:12.202Z,8.47
2018-05-23T11:14:39.681Z,10.37
2018-05-23T11:17:07.258Z,8.20
2018-05-23T11:19:34.746Z,11.43
2018-05-23T11:22:02.335Z,10.20
2018-05-23T11:24:29.840Z,9.40
2018-05-23T11:26:57.747Z,10.70
2018-05-23T11:29:25.235Z,9.00
2018-05-23T11:31:52.743Z,7.70
2018-05-23T11:34:20.227Z,8.10
2018-05-23T11:36:47.822Z,7.77
2018-05-23T11:39:15.332Z,7.80
2018-05-23T11:41:42.912Z,10.07
2018-05-23T11:44:10.492Z,9.70
2018-05-23T11:46:38.071Z,7.70
2018-05-23T11:49:05.559Z,8.50
2018-05-23T11:51:33.067Z,9.67
2018-05-23T11:54:00.955Z,7.97
2018-05-23T11:56:28.926Z,8.00
2018-05-23T11:58:56.411Z,9.23
2018-05-23T12:01:23.927Z,7.80
2018-05-23T12:03:51.402Z,8.37
2018-05-23T12:06:18.880Z,8.73
2018-05-23T12:08:47.086Z,9.00
2018-05-23T12:11:14.599Z,8.70
2018-05-23T12:13:42.103Z,8.70
2018-05-23T12:16:09.626Z,9.00
2018-05-23T12:18:37.130Z,8.67
2018-05-23T12:21:04.620Z,10.53
2018-05-23T12:23:32.499Z,9.63
2018-05-23T12:26:00.022Z,10.03
2018-05-23T12:28:27.578Z,9.70
2018-05-23T12:30:55.121Z,9.63
2018-05-23T12:33:22.632Z,9.03
2018-05-23T12:35:50.518Z,10.90
2018-05-23T12:38:18.416Z,10.57
2018-05-23T12:40:46.396Z,11.57
2018-05-23T12:43:13.911Z,10.67
2018-05-23T12:45:41.394Z,10.63
2018-05-23T12:48:08.901Z,13.10
2018-05-23T12:50:36.431Z,13.43
2018-05-23T12:53:04.025Z,13.00
2018-05-23T12:55:31.915Z,14.00
2018-05-23T12:57:59.819Z,13.50
2018-05-23T13:00:27.796Z,13.40
2018-05-23T13:02:55.315Z,17.77
2018-05-23T13:05:22.875Z,11.60
2018-05-23T13:07:50.780Z,11.90
2018-05-23T13:10:18.747Z,11.43
2018-05-23T13:12:46.301Z,11.33
2018-05-23T13:15:13.768Z,10.77
2018-05-23T13:17:41.279Z,11.80
2018-05-23T13:20:08.771Z,11.40
2018-05-23T13:22:36.354Z,12.40
2018-05-23T13:25:03.852Z,11.93
2018-05-23T13:27:31.436Z,12.17
2018-05-23T13:29:59.342Z,14.87
2018-05-23T13:32:27.227Z,12.70
2018-05-23T13:34:55.156Z,11.60
2018-05-23T13:37:22.705Z,11.70
2018-05-23T13:39:50.615Z,11.67
2018-05-23T13:42:18.499Z,15.93
2018-05-23T13:44:46.411Z,12.50
2018-05-23T13:47:13.903Z,12.40
2018-05-23T13:49:41.439Z,11.90
2018-05-23T13:52:09.028Z,11.40
2018-05-23T13:54:36.543Z,12.60
2018-05-23T13:57:04.031Z,10.53
2018-05-23T13:59:31.544Z,11.43
2018-05-23T14:01:59.031Z,12.07
2018-05-23T14:04:26.705Z,11.00
2018-05-23T14:06:54.235Z,12.03
2018-05-23T14:09:21.828Z,12.13
2018-05-23T14:11:49.759Z,13.47
2018-05-23T14:14:17.267Z,12.83
2018-05-23T14:16:44.759Z,13.20
2018-05-23T14:19:12.387Z,12.20
2018-05-23T14:21:40.177Z,13.53
2018-05-23T14:24:08.088Z,14.67
2018-05-23T14:26:35.590Z,11.27
2018-05-23T14:29:03.160Z,12.33
2018-05-23T14:31:30.660Z,14.07
2018-05-23T14:33:58.275Z,11.60
2018-05-23T14:36:25.824Z,11.60
2018-05-23T14:38:53.372Z,13.33
2018-05-23T14:41:21.258Z,12.47
2018-05-23T14:43:49.246Z,12.57
2018-05-23T14:46:16.727Z,12.37
2018-05-23T14:48:44.343Z,13.10
2018-05-23T14:51:11.839Z,12.73
2018-05-23T14:53:39.355Z,13.23
2018-05-23T14:56:06.938Z,13.30
2018-05-23T14:58:34.807Z,15.30
2018-05-23T15:01:02.342Z,13.10
2018-05-23T15:03:29.953Z,12.57
2018-05-23T15:05:57.927Z,12.63
2018-05-23T15:08:25.411Z,11.97
2018-05-23T15:10:52.990Z,11.63
2018-05-23T15:13:20.535Z,13.03
2018-05-23T15:15:48.044Z,10.80
2018-05-23T15:18:15.534Z,11.97
2018-05-23T15:20:43.114Z,10.73
2018-05-23T15:23:10.603Z,12.47
2018-05-23T15:25:38.531Z,10.07
2018-05-23T15:28:06.051Z,16.87
2018-05-23T15:30:33.667Z,9.87
2018-05-23T15:33:01.266Z,10.27
2018-05-23T15:35:29.699Z,9.63
2018-05-23T15:37:57.194Z,10.40
2018-05-23T15:40:24.706Z,11.57
2018-05-23T15:42:52.222Z,10.83
2018-05-23T15:45:20.235Z,9.43
2018-05-23T15:47:47.722Z,9.70
2018-05-23T15:50:15.237Z,9.63
2018-05-23T15:52:42.751Z,11.20
2018-05-23T15:55:10.253Z,12.00
2018-05-23T15:57:38.139Z,12.07
2018-05-23T16:00:05.720Z,10.57
2018-05-23T16:02:33.299Z,8.87
2018-05-23T16:05:00.899Z,9.17
2018-05-23T16:07:28.883Z,8.73
2018-05-23T16:09:56.439Z,9.83
2018-05-23T16:12:23.950Z,10.07
2018-05-23T16:14:51.618Z,9.83
2018-05-23T16:17:19.434Z,9.00
2018-05-23T16:19:47.016Z,11.17
2018-05-23T16:22:14.510Z,11.13
2018-05-23T16:24:42.071Z,10.10
2018-05-23T16:27:09.564Z,9.60
2018-05-23T16:29:37.150Z,10.50
2018-05-23T16:32:04.655Z,12.47
2018-05-23T16:34:32.627Z,13.23
2018-05-23T16:37:00.220Z,9.27
2018-05-23T16:39:27.712Z,9.23
2018-05-23T16:41:55.608Z,9.47
2018-05-23T16:44:23.502Z,9.80
2018-05-23T16:46:51.416Z,10.50
2018-05-23T16:49:18.911Z,9.27
2018-05-23T16:51:46.420Z,9.90
2018-05-23T16:54:13.915Z,13.30
2018-05-23T16:56:41.503Z,12.00
2018-05-23T16:59:08.986Z,10.07
2018-05-23T17:01:36.495Z,11.40
2018-05-23T17:04:04.468Z,13.47
2018-05-23T17:06:32.084Z,9.57
2018-05-23T17:08:59.530Z,11.00
2018-05-23T17:11:27.035Z,10.07
2018-05-23T17:13:54.915Z,9.90
2018-05-23T17:16:22.423Z,8.90
2018-05-23T17:18:50.011Z,9.37
2018-05-23T17:21:17.892Z,8.50
2018-05-23T17:23:45.779Z,8.77
2018-05-23T17:26:13.684Z,10.43
2018-05-23T17:28:41.184Z,7.67
2018-05-23T17:31:08.745Z,9.27
2018-05-23T17:33:36.623Z,7.07
2018-05-23T17:36:04.127Z,7.47
2018-05-23T17:38:32.097Z,8.00
2018-05-23T17:40:59.605Z,11.30
2018-05-23T17:43:27.091Z,8.63
2018-05-23T17:45:54.666Z,8.30
2018-05-23T17:48:22.146Z,6.63
2018-05-23T17:50:50.027Z,6.57
2018-05-23T17:53:17.921Z,6.97
2018-05-23T17:55:45.800Z,5.80
2018-05-23T17:58:13.377Z,6.27
2018-05-23T18:00:40.980Z,5.80
2018-05-23T18:03:08.554Z,8.27
2018-05-23T18:05:36.147Z,6.30
2018-05-23T18:08:03.646Z,5.67
2018-05-23T18:10:31.517Z,8.70
2018-05-23T18:12:59.107Z,7.23
2018-05-23T18:15:26.687Z,5.63
2018-05-23T18:17:54.299Z,7.97
2018-05-23T18:20:21.763Z,8.33
2018-05-23T18:22:49.266Z,6.40
2018-05-23T18:25:16.848Z,6.07
2018-05-23T18:27:44.817Z,8.03
2018-05-23T18:30:12.311Z,6.13
2018-05-23T18:32:39.811Z,6.00
2018-05-23T18:35:07.700Z,5.50
2018-05-23T18:37:35.600Z,6.93
2018-05-23T18:40:03.479Z,6.60
2018-05-23T18:42:31.456Z,5.50
2018-05-23T18:44:59.148Z,6.03
2018-05-23T18:47:26.656Z,5.83
2018-05-23T18:49:54.572Z,5.73
2018-05-23T18:52:22.079Z,9.03
2018-05-23T18:54:49.613Z,5.13
2018-05-23T18:57:17.266Z,6.77
2018-05-23T18:59:45.088Z,6.63
2018-05-23T19:02:12.984Z,6.83
2018-05-23T19:04:40.962Z,5.03
2018-05-23T19:07:08.461Z,6.70
2018-05-23T19:09:36.329Z,5.13
2018-05-23T19:12:03.836Z,10.53
2018-05-23T19:14:31.720Z,7.67
2018-05-23T19:16:59.705Z,7.80
2018-05-23T19:19:27.241Z,5.83
2018-05-23T19:21:54.728Z,6.70
2018-05-23T19:24:22.331Z,7.90
2018-05-23T19:26:49.813Z,5.20
2018-05-23T19:29:17.315Z,5.73
2018-05-23T19:31:44.794Z,7.13
2018-05-23T19:34:12.349Z,5.53
2018-05-23T19:36:39.835Z,5.20
2018-05-23T19:39:07.343Z,6.30
2018-05-23T19:41:34.834Z,6.20
2018-05-23T19:44:02.418Z,7.93
2018-05-23T19:46:30.005Z,7.00
2018-05-23T19:48:57.515Z,5.90
2018-05-23T19:51:25.007Z,6.77
2018-05-23T19:53:52.549Z,8.37
2018-05-23T19:56:20.039Z,5.53
2018-05-23T19:58:47.563Z,8.40
2018-05-23T20:01:15.091Z,7.07
2018-05-23T20:03:42.677Z,5.13
2018-05-23T20:06:11.148Z,6.53
2018-05-23T20:08:38.654Z,5.60
2018-05-23T20:11:06.160Z,5.60
2018-05-23T20:13:33.744Z,5.40
2018-05-23T20:16:01.232Z,7.80
2018-05-23T20:18:28.808Z,5.30
2018-05-23T20:20:56.299Z,4.90
2018-05-23T20:23:23.824Z,5.40
2018-05-23T20:25:51.315Z,5.17
2018-05-23T20:28:18.814Z,5.87
2018-05-23T20:30:46.295Z,5.63
2018-05-23T20:33:13.812Z,4.73
2018-05-23T20:35:41.396Z,5.50
2018-05-23T20:38:08.904Z,4.70
2018-05-23T20:40:36.777Z,6.93
2018-05-23T20:43:04.290Z,5.27
2018-05-23T20:45:31.776Z,5.40
2018-05-23T20:47:59.267Z,4.37
2018-05-23T20:50:26.771Z,6.40
2018-05-23T20:52:54.286Z,5.23
2018-05-23T20:55:21.872Z,5.20
2018-05-23T20:57:49.458Z,7.63
2018-05-23T21:00:16.966Z,6.10
2018-05-23T21:02:44.842Z,4.90
2018-05-23T21:05:12.496Z,8.23
2018-05-23T21:07:39.934Z,5.33
2018-05-23T21:10:07.826Z,7.10
2018-05-23T21:12:35.317Z,8.63
2018-05-23T21:15:02.828Z,5.33
2018-05-23T21:17:30.316Z,6.53
2018-05-23T21:19:57.922Z,9.03
2018-05-23T21:22:25.511Z,6.57
2018-05-23T21:24:53.090Z,5.40
2018-05-23T21:27:20.578Z,6.10
2018-05-23T21:29:48.073Z,7.80
2018-05-23T21:32:15.572Z,5.00
2018-05-23T21:34:43.480Z,5.37
2018-05-23T21:37:10.972Z,5.90
2018-05-23T21:39:38.479Z,4.73
2018-05-23T21:42:05.988Z,4.13
2018-05-23T21:44:33.496Z,5.17
2018-05-23T21:47:01.467Z,6.97
2018-05-23T21:49:28.969Z,5.00
2018-05-23T21:51:56.859Z,6.40
2018-05-23T21:54:24.783Z,7.70
2018-05-23T21:56:52.259Z,5.23
2018-05-23T21:59:19.774Z,5.83
2018-05-23T22:01:47.257Z,5.27
2018-05-23T22:04:14.775Z,6.60
2018-05-23T22:06:42.254Z,5.67
2018-05-23T22:09:09.843Z,5.60
2018-05-23T22:11:37.321Z,4.50
2018-05-23T22:14:04.804Z,6.63
2018-05-23T22:16:32.307Z,5.10
2018-05-23T22:19:00.187Z,6.43
2018-05-23T22:21:27.682Z,7.00
2018-05-23T22:23:55.567Z,10.37
2018-05-23T22:26:23.575Z,6.67
2018-05-23T22:28:51.463Z,4.63
2018-05-23T22:31:19.354Z,5.73
2018-05-23T22:33:47.235Z,7.13
2018-05-23T22:36:14.738Z,7.30
2018-05-23T22:38:42.624Z,7.00
2018-05-23T22:41:10.599Z,7.80
2018-05-23T22:43:38.079Z,4.70
2018-05-23T22:46:05.669Z,5.60
2018-05-23T22:48:33.252Z,4.43
2018-05-23T22:51:00.835Z,5.80
2018-05-23T22:53:28.445Z,5.23
2018-05-23T22:55:56.344Z,5.90
2018-05-23T22:58:23.835Z,7.40
2018-05-23T23:00:51.348Z,5.53
2018-05-23T23:03:18.839Z,8.63
2018-05-23T23:05:46.351Z,5.40
2018-05-23T23:08:13.849Z,6.03
2018-05-23T23:10:41.828Z,5.23
2018-05-23T23:13:09.325Z,5.47
2018-05-23T23:15:37.231Z,6.20
2018-05-23T23:18:04.714Z,5.40
2018-05-23T23:20:32.297Z,5.10
2018-05-23T23:22:59.722Z,6.07
2018-05-23T23:25:27.339Z,5.07
2018-05-23T23:27:54.831Z,7.10
2018-05-23T23:30:22.740Z,6.47
2018-05-23T23:32:50.229Z,6.63
2018-05-23T23:35:17.744Z,8.63
2018-05-23T23:37:45.231Z,5.20
2018-05-23T23:40:12.739Z,4.43
2018-05-23T23:42:40.335Z,6.40
2018-05-23T23:45:07.831Z,4.63
2018-05-23T23:47:35.762Z,5.50
2018-05-23T23:50:03.254Z,4.70
2018-05-23T23:52:30.767Z,7.23
2018-05-23T23:54:58.360Z,4.93
2018-05-23T23:57:25.857Z,4.63
2018-05-23T23:59:53.748Z,5.37
